Time;durP1;ratioP1;P1;durP2;ratioP2;P2;SDS_P1;SDS_P2;PMS_P1;PMS_P2;Temp;Humidity;BMP_temperature;BMP_pressure;BME280_temperature;BME280_humidity;BME280_pressure;Samples;Min_cycle;Max_cycle;Signal;HPM_P1;HPM_P2
2023/02/17 00:00:22;;;;;;;33.00;17.92;;;;;;;-2.56;78.18;97295.09;5055010;28;20556;-61
2023/02/17 00:02:49;;;;;;;32.20;17.63;;;;;;;-2.64;78.36;97301.69;5054848;28;20049;-62
2023/02/17 00:05:17;;;;;;;30.25;17.42;;;;;;;-2.60;78.54;97311.19;5054841;28;20045;-65
2023/02/17 00:07:44;;;;;;;34.58;17.00;;;;;;;-2.60;78.28;97313.75;5054700;28;20453;-63
2023/02/17 00:10:13;;;;;;;29.55;16.90;;;;;;;-2.67;78.45;97302.47;5054677;28;20053;-66
2023/02/17 00:12:42;;;;;;;34.17;17.25;;;;;;;-2.68;78.51;97298.19;5054681;28;20099;-64
2023/02/17 00:15:09;;;;;;;30.08;16.35;;;;;;;-2.69;78.78;97299.88;5053623;28;20513;-64
2023/02/17 00:17:36;;;;;;;30.77;17.75;;;;;;;-2.74;79.14;97300.59;5054625;28;20073;-63
2023/02/17 00:20:04;;;;;;;34.05;18.02;;;;;;;-2.80;79.79;97291.03;5054541;28;20080;-64
2023/02/17 00:22:31;;;;;;;33.03;18.52;;;;;;;-2.77;80.37;97292.81;5054495;28;20049;-66
2023/02/17 00:24:58;;;;;;;32.30;16.23;;;;;;;-2.71;80.33;97287.84;5054471;28;20553;-61
2023/02/17 00:27:25;;;;;;;39.67;24.92;;;;;;;-2.64;79.74;97289.75;5054536;28;20457;-64
2023/02/17 00:29:56;;;;;;;30.15;17.90;;;;;;;-2.69;79.70;97286.19;5054310;28;20075;-65
2023/02/17 00:32:23;;;;;;;28.50;15.90;;;;;;;-2.69;80.55;97287.06;5054423;28;20128;-66
2023/02/17 00:34:55;;;;;;;33.05;18.00;;;;;;;-2.63;80.75;97276.09;5054328;28;20380;-65
2023/02/17 00:37:22;;;;;;;33.35;16.63;;;;;;;-2.59;80.99;97271.94;5054327;28;20044;-64
2023/02/17 00:39:49;;;;;;;33.85;17.10;;;;;;;-2.52;80.47;97275.50;5054193;28;20454;-61
2023/02/17 00:42:17;;;;;;;27.90;15.38;;;;;;;-2.56;79.66;97278.00;5054104;28;20124;-65
2023/02/17 00:44:44;;;;;;;27.38;16.10;;;;;;;-2.51;79.32;97273.00;5054005;28;20490;-63
2023/02/17 00:47:13;;;;;;;27.95;16.40;;;;;;;-2.46;78.44;97268.00;5054111;28;20048;-64
2023/02/17 00:49:40;;;;;;;31.80;16.45;;;;;;;-2.54;78.77;97255.84;5053942;28;20491;-65
2023/02/17 00:52:07;;;;;;;27.08;15.05;;;;;;;-2.70;79.72;97254.59;5053957;28;20049;-61
2023/02/17 00:54:34;;;;;;;25.33;15.85;;;;;;;-2.62;79.93;97257.34;5053875;28;20136;-63
2023/02/17 00:57:01;;;;;;;28.55;16.48;;;;;;;-2.53;80.05;97249.00;5053869;28;20053;-66
2023/02/17 00:59:29;;;;;;;32.85;15.02;;;;;;;-2.54;80.02;97242.16;5053953;28;20088;-64
2023/02/17 01:01:56;;;;;;;26.33;15.05;;;;;;;-2.47;79.39;97244.03;5054024;28;20127;-64
2023/02/17 01:04:25;;;;;;;25.20;13.65;;;;;;;-2.46;78.80;97235.53;5053691;28;20103;-65
2023/02/17 01:06:52;;;;;;;28.15;15.10;;;;;;;-2.48;78.71;97239.75;5053765;28;20419;-65
2023/02/17 01:09:19;;;;;;;26.00;14.50;;;;;;;-2.51;79.58;97231.13;5053535;28;20067;-65
2023/02/17 01:11:46;;;;;;;30.17;16.55;;;;;;;-2.54;80.43;97226.78;5053835;28;20099;-66
2023/02/17 01:14:16;;;;;;;31.15;15.73;;;;;;;-2.54;80.58;97219.97;5053265;28;20139;-64
2023/02/17 01:16:46;;;;;;;21.07;11.23;;;;;;;-2.52;80.61;97221.69;5053585;28;20078;-66
2023/02/17 01:19:16;;;;;;;27.35;15.25;;;;;;;-2.56;80.08;97219.06;5053490;28;20053;-65
2023/02/17 01:21:44;;;;;;;29.23;16.88;;;;;;;-2.65;80.17;97213.69;5053320;28;20051;-66
2023/02/17 01:24:12;;;;;;;27.13;17.73;;;;;;;-2.71;80.46;97208.44;5053360;28;20049;-65
2023/02/17 01:26:40;;;;;;;31.08;16.95;;;;;;;-2.69;80.60;97206.78;5053444;28;20102;-62
2023/02/17 01:29:08;;;;;;;27.13;16.17;;;;;;;-2.69;80.51;97210.22;5053362;28;20047;-66
2023/02/17 01:31:36;;;;;;;29.65;16.95;;;;;;;-2.68;80.80;97199.13;5053245;28;20053;-63
2023/02/17 01:34:05;;;;;;;37.72;18.40;;;;;;;-2.67;81.32;97197.44;5053260;28;20511;-64
2023/02/17 01:36:33;;;;;;;36.60;15.77;;;;;;;-2.58;81.17;97200.25;5053206;28;20453;-63
2023/02/17 01:39:03;;;;;;;30.15;16.75;;;;;;;-2.58;80.64;97196.78;5053326;28;20049;-65
2023/02/17 01:41:31;;;;;;;36.05;20.60;;;;;;;-2.64;80.31;97192.41;5053334;28;20056;-65
2023/02/17 01:44:07;;;;;;;41.65;21.17;;;;;;;-2.64;80.08;97187.28;5053148;28;20057;-65
2023/02/17 01:46:35;;;;;;;35.75;17.85;;;;;;;-2.73;79.61;97190.47;5053131;28;20098;-64
2023/02/17 01:49:06;;;;;;;28.65;16.48;;;;;;;-2.79;79.96;97180.91;5053131;28;20045;-65
2023/02/17 01:51:36;;;;;;;29.15;15.63;;;;;;;-2.82;79.92;97182.53;5053020;28;20045;-65
2023/02/17 01:54:09;;;;;;;29.38;16.27;;;;;;;-2.92;80.50;97184.88;5053049;28;20099;-65
2023/02/17 01:56:41;;;;;;;28.95;16.45;;;;;;;-2.82;80.82;97174.88;5052888;28;20049;-66
2023/02/17 01:59:12;;;;;;;33.20;17.70;;;;;;;-2.86;80.99;97181.59;5052891;28;20439;-64
2023/02/17 02:01:40;;;;;;;34.55;18.45;;;;;;;-2.84;80.76;97171.38;5052885;28;20127;-65
2023/02/17 02:04:09;;;;;;;35.50;17.60;;;;;;;-2.88;80.95;97169.59;5052870;28;20074;-64
2023/02/17 02:06:40;;;;;;;28.10;16.73;;;;;;;-2.83;81.03;97168.03;5053117;28;20130;-64
2023/02/17 02:09:14;;;;;;;30.38;16.45;;;;;;;-2.92;80.65;97174.63;5052761;28;20060;-66
2023/02/17 02:11:42;;;;;;;33.35;17.73;;;;;;;-2.94;81.00;97170.28;5052787;28;20556;-62
2023/02/17 02:14:12;;;;;;;49.22;29.33;;;;;;;-3.00;80.89;97175.25;5052425;28;20049;-65
2023/02/17 02:16:46;;;;;;;34.05;18.27;;;;;;;-3.13;81.34;97166.41;5052698;28;20057;-61
2023/02/17 02:19:35;;;;;;;38.28;19.35;;;;;;;-3.09;81.96;97165.66;5052761;28;20049;-64
2023/02/17 02:22:38;;;;;;;33.78;18.33;;;;;;;-3.01;82.00;97168.41;5052737;28;20053;-63
2023/02/17 02:25:22;;;;;;;34.33;18.73;;;;;;;-3.08;82.01;97165.69;5052711;28;20388;-65
2023/02/17 02:27:58;;;;;;;32.33;17.70;;;;;;;-2.98;81.70;97168.50;5052604;28;20056;-63
2023/02/17 02:31:03;;;;;;;31.83;16.67;;;;;;;-2.94;81.42;97162.63;5052540;28;20049;-65
2023/02/17 02:33:41;;;;;;;37.63;17.02;;;;;;;-3.01;82.33;97163.28;5052613;28;20134;-64
2023/02/17 02:36:14;;;;;;;31.17;17.67;;;;;;;-2.97;82.47;97162.53;5052754;28;20403;-65
2023/02/17 02:38:46;;;;;;;32.22;17.70;;;;;;;-2.89;82.03;97165.28;5056135;28;20052;-67
2023/02/17 02:41:19;;;;;;;32.05;18.42;;;;;;;-2.79;81.37;97159.56;5056448;28;20128;-62
2023/02/17 02:43:48;;;;;;;32.60;17.40;;;;;;;-2.77;81.10;97157.06;5056328;28;20076;-64
2023/02/17 02:46:15;;;;;;;32.78;18.00;;;;;;;-2.83;80.49;97157.78;5056232;28;20055;-66
2023/02/17 02:48:45;;;;;;;32.03;17.13;;;;;;;-2.86;80.83;97155.97;5056266;28;20144;-64
2023/02/17 02:51:30;;;;;;;31.58;16.90;;;;;;;-2.83;80.49;97155.22;5056170;28;20088;-64
2023/02/17 02:54:12;;;;;;;29.67;16.10;;;;;;;-2.86;80.98;97150.00;5056185;28;20402;-66
2023/02/17 02:56:52;;;;;;;29.95;16.75;;;;;;;-3.01;81.75;97150.50;5056296;28;20132;-66
2023/02/17 02:59:33;;;;;;;29.55;17.55;;;;;;;-2.94;82.31;97153.25;5056052;28;20052;-66
2023/02/17 03:02:08;;;;;;;47.55;27.48;;;;;;;-2.98;81.98;97146.28;5056091;28;20041;-67
2023/02/17 03:04:42;;;;;;;36.88;20.65;;;;;;;-2.94;82.13;97147.25;5056139;28;20376;-67
2023/02/17 03:07:19;;;;;;;39.95;19.42;;;;;;;-3.04;82.61;97148.72;5056113;28;20103;-64
2023/02/17 03:09:48;;;;;;;30.98;17.98;;;;;;;-2.94;82.83;97153.25;5056240;28;20507;-64
2023/02/17 03:12:15;;;;;;;32.60;17.83;;;;;;;-2.91;83.41;97152.44;5055907;28;20079;-66
2023/02/17 03:14:43;;;;;;;45.97;20.15;;;;;;;-2.86;83.80;97152.56;5055842;28;20049;-65
2023/02/17 03:17:10;;;;;;;35.47;19.65;;;;;;;-2.73;84.13;97148.59;5056022;28;20045;-65
2023/02/17 03:19:39;;;;;;;39.35;18.77;;;;;;;-2.70;83.32;97148.69;5055680;28;20045;-62
2023/02/17 03:22:11;;;;;;;38.92;19.60;;;;;;;-2.70;83.34;97141.00;5055791;28;20124;-64
2023/02/17 03:24:39;;;;;;;31.50;17.77;;;;;;;-2.77;83.39;97141.69;5056082;28;20060;-65
2023/02/17 03:27:06;;;;;;;42.92;18.48;;;;;;;-2.74;83.60;97142.59;5055696;28;20495;-64
2023/02/17 03:29:33;;;;;;;36.50;17.55;;;;;;;-2.69;83.49;97145.28;5055510;28;20049;-64
2023/02/17 03:32:00;;;;;;;32.92;17.73;;;;;;;-2.63;82.73;97145.44;5055440;28;20053;-63
2023/02/17 03:34:28;;;;;;;33.10;17.15;;;;;;;-2.61;82.06;97151.47;5055474;28;20045;-64
2023/02/17 03:36:57;;;;;;;31.77;15.95;;;;;;;-2.60;81.68;97148.06;5055306;28;20049;-63
2023/02/17 03:39:24;;;;;;;30.02;16.75;;;;;;;-2.67;81.84;97152.19;5055278;28;20049;-64
2023/02/17 03:41:51;;;;;;;35.65;17.38;;;;;;;-2.69;81.66;97153.84;5055221;28;20041;-65
2023/02/17 03:44:18;;;;;;;34.10;16.35;;;;;;;-2.69;82.00;97153.84;5055168;28;20049;-66
2023/02/17 03:46:46;;;;;;;35.80;18.05;;;;;;;-2.84;82.43;97146.66;5055360;28;20376;-67
2023/02/17 03:49:13;;;;;;;40.58;21.17;;;;;;;-2.76;82.21;97157.09;5053893;28;20045;-64
2023/02/17 03:51:40;;;;;;;36.22;20.30;;;;;;;-2.77;82.22;97149.38;5055059;28;20053;-66
2023/02/17 03:54:09;;;;;;;31.10;18.30;;;;;;;-2.71;81.97;97149.53;5055081;28;20053;-65
2023/02/17 03:56:36;;;;;;;41.03;18.58;;;;;;;-2.69;81.59;97150.41;5055166;28;20132;-62
2023/02/17 03:59:03;;;;;;;36.65;18.38;;;;;;;-2.70;81.24;97152.13;5054971;28;20487;-66
2023/02/17 04:01:31;;;;;;;49.40;23.17;;;;;;;-2.77;81.46;97157.06;5055016;28;20099;-64
2023/02/17 04:03:58;;;;;;;39.35;19.50;;;;;;;-2.78;81.38;97158.75;5055133;28;20045;-66
2023/02/17 04:06:26;;;;;;;44.88;18.52;;;;;;;-2.92;80.87;97166.09;5054889;28;20552;-66
2023/02/17 04:08:53;;;;;;;35.67;18.77;;;;;;;-3.02;82.04;97169.22;5055021;28;20494;-63
2023/02/17 04:11:22;;;;;;;37.67;18.08;;;;;;;-2.98;81.85;97156.53;5054685;28;20052;-64
2023/02/17 04:13:49;;;;;;;33.85;18.83;;;;;;;-2.99;81.82;97161.63;5054582;28;20465;-65
2023/02/17 04:16:17;;;;;;;34.28;19.48;;;;;;;-2.97;82.61;97158.28;5054676;28;20132;-63
2023/02/17 04:18:44;;;;;;;41.65;20.33;;;;;;;-3.01;82.38;97160.72;5054629;28;20080;-63
2023/02/17 04:21:12;;;;;;;30.60;17.02;;;;;;;-3.03;82.17;97150.44;5054544;28;20045;-64
2023/02/17 04:23:39;;;;;;;35.03;19.33;;;;;;;-3.07;81.66;97152.06;5054580;28;20415;-66
2023/02/17 04:26:07;;;;;;;28.55;16.83;;;;;;;-3.22;82.01;97155.06;5054513;28;20048;-66
2023/02/17 04:28:38;;;;;;;36.67;19.38;;;;;;;-3.21;82.82;97150.84;5054708;28;20055;-67
2023/02/17 04:31:05;;;;;;;34.58;18.40;;;;;;;-3.14;82.92;97155.28;5054291;28;20056;-64
2023/02/17 04:33:33;;;;;;;35.60;17.67;;;;;;;-3.25;82.81;97151.59;5054360;28;20380;-64
2023/02/17 04:36:01;;;;;;;33.28;18.95;;;;;;;-3.24;84.68;97153.31;5054242;28;20380;-62
2023/02/17 04:38:29;;;;;;;32.72;18.50;;;;;;;-3.17;84.69;97158.63;5054194;28;20514;-61
2023/02/17 04:40:58;;;;;;;33.38;18.52;;;;;;;-3.23;84.17;97149.91;5054388;28;20110;-66
2023/02/17 04:43:26;;;;;;;36.63;20.20;;;;;;;-3.23;84.15;97150.78;5054158;28;20057;-63
2023/02/17 04:45:55;;;;;;;34.42;17.63;;;;;;;-3.14;83.97;97147.59;5054220;28;20049;-68
2023/02/17 04:48:23;;;;;;;38.58;19.50;;;;;;;-3.20;84.25;97152.56;5054152;28;20161;-64
2023/02/17 04:50:50;;;;;;;39.05;18.38;;;;;;;-3.14;84.04;97149.28;5053967;28;20095;-67
2023/02/17 04:53:18;;;;;;;36.40;20.10;;;;;;;-3.17;83.97;97143.28;5054443;28;20044;-66
2023/02/17 04:55:48;;;;;;;36.08;19.70;;;;;;;-3.11;83.98;97150.25;5054009;28;20072;-66
2023/02/17 04:58:15;;;;;;;37.20;20.00;;;;;;;-3.10;84.24;97148.56;5053823;28;20453;-63
2023/02/17 05:00:42;;;;;;;41.47;19.00;;;;;;;-3.10;84.79;97146.00;5053416;28;20057;-64
2023/02/17 05:03:11;;;;;;;34.95;19.25;;;;;;;-3.09;84.59;97151.16;5054167;28;20052;-64
2023/02/17 05:05:38;;;;;;;30.00;17.23;;;;;;;-3.06;84.17;97151.25;5053691;28;20079;-66
2023/02/17 05:08:05;;;;;;;32.75;18.00;;;;;;;-3.02;84.18;97149.59;5053661;28;20127;-65
2023/02/17 05:10:32;;;;;;;37.28;19.20;;;;;;;-2.94;84.34;97152.38;5053523;28;20452;-62
2023/02/17 05:12:59;;;;;;;36.95;19.30;;;;;;;-2.87;83.82;97150.81;5053969;28;20074;-65
2023/02/17 05:15:26;;;;;;;38.75;18.50;;;;;;;-2.86;83.67;97150.00;5053577;28;20511;-67
2023/02/17 05:17:54;;;;;;;34.22;17.42;;;;;;;-2.80;83.76;97152.72;5053555;28;20125;-63
2023/02/17 05:20:23;;;;;;;37.20;19.02;;;;;;;-2.84;83.07;97145.78;5053484;28;20464;-66
2023/02/17 05:22:50;;;;;;;34.75;18.05;;;;;;;-2.82;83.39;97150.13;5053457;28;20059;-66
2023/02/17 05:25:18;;;;;;;34.78;17.92;;;;;;;-2.79;83.79;97142.50;5053428;28;20049;-66
2023/02/17 05:27:45;;;;;;;30.92;16.33;;;;;;;-2.67;83.40;97151.31;5053331;28;20049;-65
2023/02/17 05:30:13;;;;;;;35.70;18.52;;;;;;;-2.59;82.62;97147.22;5053328;28;20091;-65
2023/02/17 05:32:40;;;;;;;37.92;19.98;;;;;;;-2.51;82.70;97151.66;5053153;28;20059;-65
2023/02/17 05:35:08;;;;;;;33.28;17.50;;;;;;;-2.42;82.36;97157.91;5053243;28;20045;-64
2023/02/17 05:37:36;;;;;;;30.33;16.33;;;;;;;-2.33;81.78;97167.50;5053362;28;20080;-66
2023/02/17 05:40:06;;;;;;;30.20;17.35;;;;;;;-2.24;81.93;97165.97;5053210;28;20454;-64
2023/02/17 05:42:33;;;;;;;37.47;18.40;;;;;;;-2.17;82.31;97171.28;5053153;28;20049;-67
2023/02/17 05:45:01;;;;;;;40.97;19.35;;;;;;;-2.07;82.37;97174.94;5053102;28;20415;-64
2023/02/17 05:47:28;;;;;;;33.72;17.15;;;;;;;-1.91;82.34;97167.53;5053140;28;20068;-64
2023/02/17 05:49:55;;;;;;;33.63;18.48;;;;;;;-1.76;82.04;97159.31;5053040;28;20049;-64
2023/02/17 05:52:23;;;;;;;28.70;16.75;;;;;;;-1.51;81.92;97164.09;5052932;28;20049;-64
2023/02/17 05:54:52;;;;;;;31.25;16.25;;;;;;;-1.21;81.20;97173.22;5052963;28;20052;-67
2023/02/17 05:57:19;;;;;;;30.17;17.42;;;;;;;-0.65;79.69;97161.34;5052981;28;20096;-67
2023/02/17 05:59:47;;;;;;;28.05;15.23;;;;;;;0.09;77.30;97168.44;5052910;28;20040;-64
2023/02/17 06:02:14;;;;;;;23.25;13.63;;;;;;;0.93;73.90;97169.44;5052847;28;20091;-66
2023/02/17 06:04:41;;;;;;;25.55;15.00;;;;;;;1.99;70.22;97172.88;5052884;28;20045;-65
2023/02/17 06:07:08;;;;;;;27.52;15.50;;;;;;;2.89;67.28;97174.16;5053171;28;20045;-63
2023/02/17 06:09:36;;;;;;;22.10;12.50;;;;;;;3.56;62.76;97173.38;5052874;28;20075;-62
2023/02/17 06:12:28;;;;;;;19.30;12.70;;;;;;;4.20;60.33;97183.66;5053639;28;20388;-66
2023/02/17 06:14:56;;;;;;;22.52;13.43;;;;;;;4.62;57.90;97191.31;5056664;28;20099;-63
2023/02/17 06:17:23;;;;;;;21.58;14.68;;;;;;;4.81;56.86;97189.50;5056915;28;20136;-67
2023/02/17 06:19:50;;;;;;;17.17;11.75;;;;;;;5.33;56.25;97187.50;5056839;28;20077;-68
2023/02/17 06:22:18;;;;;;;26.38;13.43;;;;;;;6.28;54.84;97178.94;5056798;28;20049;-66
2023/02/17 06:24:46;;;;;;;19.63;13.38;;;;;;;7.25;53.09;97195.13;5056759;28;20056;-66
2023/02/17 06:27:15;;;;;;;19.88;12.90;;;;;;;8.47;50.59;97192.22;5056720;28;20094;-65
2023/02/17 06:29:42;;;;;;;21.10;12.95;;;;;;;9.50;48.28;97172.69;5056896;28;20084;-66
2023/02/17 06:32:10;;;;;;;18.52;11.85;;;;;;;10.12;46.25;97181.66;5056568;28;20053;-67
2023/02/17 06:34:37;;;;;;;17.48;12.43;;;;;;;10.46;44.89;97182.53;5056586;28;20045;-67
2023/02/17 06:37:04;;;;;;;18.30;13.45;;;;;;;11.03;44.26;97185.31;5056580;28;20081;-64
2023/02/17 06:39:32;;;;;;;17.98;12.70;;;;;;;11.27;43.13;97187.22;5056493;28;20048;-63
2023/02/17 06:42:00;;;;;;;16.25;12.93;;;;;;;11.17;43.75;97179.63;5056560;28;20068;-65
2023/02/17 06:44:30;;;;;;;17.50;12.55;;;;;;;10.91;43.83;97181.28;5056360;28;20483;-65
2023/02/17 06:46:58;;;;;;;20.33;13.87;;;;;;;10.53;44.53;97186.69;5056418;28;20183;-67
2023/02/17 06:49:25;;;;;;;18.00;12.65;;;;;;;10.32;45.24;97188.09;5056329;28;20041;-66
2023/02/17 06:51:53;;;;;;;17.08;12.73;;;;;;;9.98;46.28;97187.22;5056046;28;20060;-66
2023/02/17 06:54:20;;;;;;;17.08;11.98;;;;;;;9.62;47.22;97190.72;5056139;28;20138;-68
2023/02/17 06:56:47;;;;;;;20.77;12.63;;;;;;;9.30;48.29;97190.56;5056189;28;20118;-63
2023/02/17 06:59:15;;;;;;;21.08;13.68;;;;;;;8.69;49.73;97189.22;5056204;28;20052;-65
2023/02/17 07:01:44;;;;;;;20.75;14.55;;;;;;;8.42;50.57;97187.97;5056141;28;20487;-67
2023/02/17 07:04:11;;;;;;;23.25;16.48;;;;;;;8.01;50.54;97193.06;5056055;28;20518;-66
2023/02/17 07:06:38;;;;;;;22.83;16.73;;;;;;;7.82;51.13;97188.16;5056064;28;20396;-65
2023/02/17 07:09:05;;;;;;;20.38;15.50;;;;;;;8.12;50.41;97185.06;5056007;28;20041;-67
2023/02/17 07:11:32;;;;;;;29.27;16.73;;;;;;;8.41;49.35;97189.75;5055961;28;20089;-67
2023/02/17 07:14:00;;;;;;;25.92;17.20;;;;;;;8.76;48.82;97192.56;5055730;28;20047;-67
2023/02/17 07:16:27;;;;;;;24.23;16.80;;;;;;;9.18;47.38;97188.22;5055829;28;20412;-63
2023/02/17 07:18:56;;;;;;;26.67;18.27;;;;;;;9.72;46.46;97179.13;5055672;28;20509;-65
2023/02/17 07:21:23;;;;;;;25.05;17.15;;;;;;;10.15;46.00;97184.19;5055914;28;20117;-64
2023/02/17 07:23:50;;;;;;;29.73;17.65;;;;;;;10.63;45.25;97189.94;5055358;28;20059;-67
2023/02/17 07:26:17;;;;;;;26.27;17.13;;;;;;;10.96;44.43;97202.09;5055615;28;20056;-66
2023/02/17 07:28:45;;;;;;;26.25;17.35;;;;;;;11.15;44.07;97193.69;5055550;28;20041;-66
2023/02/17 07:31:15;;;;;;;23.13;16.40;;;;;;;11.44;44.08;97197.19;5055485;28;20084;-63
2023/02/17 07:33:44;;;;;;;21.45;16.33;;;;;;;11.81;43.43;97195.16;5055590;28;20060;-65
2023/02/17 07:36:17;;;;;;;23.50;17.17;;;;;;;12.37;42.68;97195.94;5055370;28;20049;-63
2023/02/17 07:38:44;;;;;;;20.65;16.02;;;;;;;12.83;41.50;97190.84;5055434;28;20107;-63
2023/02/17 07:41:13;;;;;;;20.88;16.08;;;;;;;13.51;40.53;97189.19;5055402;28;20517;-65
2023/02/17 07:43:41;;;;;;;25.85;16.00;;;;;;;14.13;39.29;97196.34;5055263;28;20483;-67
2023/02/17 07:46:10;;;;;;;20.25;15.82;;;;;;;14.82;37.82;97194.31;5055327;28;20067;-64
2023/02/17 07:48:37;;;;;;;19.50;14.15;;;;;;;15.18;36.62;97199.75;5055358;28;20120;-68
2023/02/17 07:51:06;;;;;;;23.42;15.93;;;;;;;15.74;34.29;97192.69;5055443;28;20118;-64
2023/02/17 07:53:36;;;;;;;20.80;16.02;;;;;;;16.07;34.24;97191.16;5055238;28;20057;-63
2023/02/17 07:56:04;;;;;;;25.03;16.73;;;;;;;16.06;33.05;97197.34;5055069;28;20128;-69
2023/02/17 07:58:31;;;;;;;24.17;17.00;;;;;;;16.78;32.82;97191.09;5055250;28;20370;-67
2023/02/17 08:00:59;;;;;;;19.77;15.25;;;;;;;17.65;31.89;97196.16;5055198;28;20044;-64
2023/02/17 08:03:27;;;;;;;22.15;16.08;;;;;;;18.16;30.86;97187.97;5054865;28;20060;-67
2023/02/17 08:05:54;;;;;;;24.10;16.73;;;;;;;18.72;30.28;97197.03;5054951;28;20049;-67
2023/02/17 08:13:55;;;;;;;24.67;16.70;;;;;;;17.71;31.57;97203.75;5054935;28;20669;-66
2023/02/17 08:16:25;;;;;;;22.80;17.55;;;;;;;17.52;31.27;97201.28;5054774;28;20049;-68
2023/02/17 08:18:54;;;;;;;21.63;17.38;;;;;;;17.34;31.54;97190.75;5054698;28;20403;-67
2023/02/17 08:21:22;;;;;;;23.35;17.23;;;;;;;16.87;31.06;97193.25;5054677;28;20053;-64
2023/02/17 08:23:49;;;;;;;25.00;18.33;;;;;;;16.56;31.58;97189.59;5054587;28;20064;-63
2023/02/17 08:26:17;;;;;;;23.25;18.23;;;;;;;16.32;31.43;97186.41;5054668;28;20446;-68
2023/02/17 08:28:45;;;;;;;22.75;17.25;;;;;;;16.12;32.17;97185.63;5054523;28;20053;-64
2023/02/17 08:31:16;;;;;;;26.15;17.50;;;;;;;15.52;32.62;97187.63;5054502;28;20099;-69
2023/02/17 08:33:44;;;;;;;23.63;16.88;;;;;;;15.06;35.28;97188.00;5054489;28;20049;-65
2023/02/17 08:36:13;;;;;;;23.10;18.52;;;;;;;14.43;35.88;97184.56;5053665;28;20060;-66
2023/02/17 08:38:41;;;;;;;23.85;17.10;;;;;;;13.83;36.74;97184.41;5054335;28;20128;-67
2023/02/17 08:41:22;;;;;;;25.85;17.70;;;;;;;13.51;36.39;97187.41;5054244;28;20136;-68
2023/02/17 08:43:50;;;;;;;20.77;15.82;;;;;;;13.68;35.32;97193.78;5054185;28;20092;-67
2023/02/17 08:46:18;;;;;;;23.25;15.90;;;;;;;13.94;36.51;97189.22;5054116;28;20045;-65
2023/02/17 08:48:46;;;;;;;25.50;15.98;;;;;;;13.84;36.65;97194.00;5054125;28;20080;-63
2023/02/17 08:51:14;;;;;;;20.98;15.38;;;;;;;13.76;37.01;97190.84;5054179;28;20098;-68
2023/02/17 08:53:41;;;;;;;21.27;15.50;;;;;;;13.45;36.85;97198.13;5054186;28;20399;-68
2023/02/17 08:56:09;;;;;;;27.13;14.98;;;;;;;13.28;34.94;97198.81;5054007;28;20470;-66
2023/02/17 08:58:38;;;;;;;19.38;13.55;;;;;;;13.35;34.76;97202.91;5053878;28;20132;-65
2023/02/17 09:01:05;;;;;;;18.02;12.18;;;;;;;13.72;34.53;97199.75;5053827;28;20137;-66
2023/02/17 09:03:34;;;;;;;18.50;13.30;;;;;;;13.95;33.80;97200.59;5053736;28;20049;-66
2023/02/17 09:06:02;;;;;;;19.15;13.27;;;;;;;13.94;33.79;97198.91;5053796;28;20110;-65
2023/02/17 09:08:29;;;;;;;17.67;12.48;;;;;;;13.88;34.16;97198.22;5053731;28;20048;-66
2023/02/17 09:10:57;;;;;;;17.63;10.93;;;;;;;13.67;34.86;97196.47;5053733;28;20511;-65
2023/02/17 09:13:25;;;;;;;20.73;13.52;;;;;;;13.82;34.63;97193.19;5053581;28;20571;-67
2023/02/17 09:15:54;;;;;;;19.35;14.65;;;;;;;13.94;35.07;97193.63;5053543;28;20061;-67
2023/02/17 09:18:21;;;;;;;19.45;13.48;;;;;;;13.97;35.19;97191.72;5053615;28;20045;-65
2023/02/17 09:20:48;;;;;;;15.35;11.50;;;;;;;14.09;33.40;97194.78;5053508;28;20446;-67
2023/02/17 09:23:16;;;;;;;16.33;11.95;;;;;;;14.23;34.10;97189.78;5053497;28;20041;-62
2023/02/17 09:25:44;;;;;;;18.70;11.93;;;;;;;14.30;33.51;97195.63;5053499;28;20081;-64
2023/02/17 09:28:12;;;;;;;15.27;11.25;;;;;;;14.17;34.85;97186.56;5053539;28;20045;-62
2023/02/17 09:30:40;;;;;;;16.65;11.60;;;;;;;14.08;35.12;97191.28;5053409;28;20089;-68
2023/02/17 09:33:09;;;;;;;17.33;11.00;;;;;;;14.37;34.93;97178.69;5053284;28;20049;-67
2023/02/17 09:35:44;;;;;;;13.93;10.85;;;;;;;14.61;34.37;97181.16;5053248;28;20045;-70
2023/02/17 09:38:11;;;;;;;18.13;10.70;;;;;;;14.53;33.51;97176.22;5053196;28;20055;-65
2023/02/17 09:40:46;;;;;;;14.55;10.60;;;;;;;14.54;34.41;97184.94;5053189;28;20045;-66
2023/02/17 09:43:16;;;;;;;17.58;11.40;;;;;;;14.49;34.05;97185.19;5053236;28;20056;-66
2023/02/17 09:45:48;;;;;;;14.23;10.32;;;;;;;14.53;34.51;97184.13;5053122;28;20072;-67
2023/02/17 09:48:19;;;;;;;15.48;10.30;;;;;;;14.49;34.87;97185.19;5053332;28;20041;-65
2023/02/17 09:50:53;;;;;;;13.90;9.48;;;;;;;14.69;32.76;97179.97;5053150;28;20049;-64
2023/02/17 09:53:28;;;;;;;19.20;9.48;;;;;;;14.66;33.80;97181.78;5053022;28;20091;-64
2023/02/17 09:55:58;;;;;;;15.93;9.45;;;;;;;14.62;33.06;97182.00;5052994;28;20053;-64
2023/02/17 09:58:32;;;;;;;13.02;9.90;;;;;;;14.81;33.45;97175.94;5053062;28;20044;-68
2023/02/17 10:01:04;;;;;;;16.75;9.63;;;;;;;15.03;32.65;97170.56;5052936;28;20057;-65
2023/02/17 10:03:39;;;;;;;18.95;11.07;;;;;;;15.04;33.03;97167.00;5052918;28;20131;-63
2023/02/17 10:06:14;;;;;;;15.25;10.10;;;;;;;15.14;33.23;97168.25;5053026;28;20045;-66
2023/02/17 10:08:48;;;;;;;13.10;9.95;;;;;;;15.19;33.44;97165.41;5053104;28;20454;-65
2023/02/17 10:11:24;;;;;;;14.75;10.40;;;;;;;15.17;32.66;97164.63;5052845;28;20472;-64
2023/02/17 10:13:55;;;;;;;15.82;8.85;;;;;;;15.07;32.33;97158.06;5052703;28;20060;-66
2023/02/17 10:16:29;;;;;;;14.48;9.77;;;;;;;15.11;32.50;97152.59;5053071;28;20483;-66
2023/02/17 10:19:04;;;;;;;16.92;9.82;;;;;;;14.99;33.06;97150.56;5052779;28;20053;-68
2023/02/17 10:21:38;;;;;;;12.88;8.85;;;;;;;14.86;31.99;97144.97;5052801;28;20138;-69
2023/02/17 10:24:05;;;;;;;15.10;9.90;;;;;;;14.90;33.34;97150.03;5052812;28;20048;-69
2023/02/17 10:26:53;;;;;;;14.65;8.80;;;;;;;14.98;32.01;97140.91;5052711;28;20049;-66
2023/02/17 10:29:34;;;;;;;13.60;9.55;;;;;;;15.14;31.93;97133.19;5052850;28;20106;-68
2023/02/17 10:32:15;;;;;;;12.73;9.32;;;;;;;15.02;33.34;97132.81;5052817;28;20042;-64
2023/02/17 10:34:53;;;;;;;12.02;8.57;;;;;;;15.18;31.23;97129.47;5052707;28;20049;-63
2023/02/17 10:37:29;;;;;;;12.27;8.45;;;;;;;15.35;31.29;97117.25;5052677;28;20051;-69
2023/02/17 10:40:00;;;;;;;10.20;7.68;;;;;;;15.32;31.28;97114.78;5052668;28;20099;-66
2023/02/17 10:42:30;;;;;;;9.93;8.05;;;;;;;15.45;30.33;97113.25;5052588;28;20061;-64
2023/02/17 10:45:03;;;;;;;11.93;7.50;;;;;;;15.41;31.71;97109.03;5052662;28;20106;-69
2023/02/17 10:47:31;;;;;;;10.23;7.10;;;;;;;15.61;29.92;97109.84;5052578;28;20673;-67
2023/02/17 10:50:01;;;;;;;11.35;7.45;;;;;;;15.60;28.99;97111.66;5052816;28;20388;-68
2023/02/17 10:52:36;;;;;;;10.27;7.63;;;;;;;15.71;30.39;97119.00;5052495;28;20111;-66
2023/02/17 10:55:08;;;;;;;10.02;7.28;;;;;;;15.81;29.58;97115.91;5052438;28;20080;-65
2023/02/17 10:57:38;;;;;;;13.48;7.45;;;;;;;15.76;28.70;97116.16;5052455;28;20080;-69
2023/02/17 11:00:11;;;;;;;9.98;7.78;;;;;;;15.74;29.61;97112.75;5056198;28;20041;-65
2023/02/17 11:02:42;;;;;;;10.95;7.10;;;;;;;15.91;29.00;97117.16;5056029;28;20511;-68
2023/02/17 11:05:22;;;;;;;11.70;7.57;;;;;;;15.93;29.43;97107.41;5056276;28;20053;-67
2023/02/17 11:07:56;;;;;;;11.32;7.47;;;;;;;15.98;28.55;97108.03;5056052;28;20132;-67
2023/02/17 11:10:27;;;;;;;8.38;6.38;;;;;;;16.09;29.00;97114.53;5055979;28;20084;-66
2023/02/17 11:12:57;;;;;;;13.30;7.43;;;;;;;16.22;28.26;97104.22;5055942;28;20045;-69
2023/02/17 11:15:28;;;;;;;9.45;6.85;;;;;;;16.22;28.56;97104.22;5055980;28;20056;-66
2023/02/17 11:17:56;;;;;;;8.95;6.75;;;;;;;16.11;28.13;97104.78;5055914;28;20057;-66
2023/02/17 11:20:34;;;;;;;10.48;6.88;;;;;;;16.07;27.47;97100.59;5055792;28;20079;-66
2023/02/17 11:23:21;;;;;;;10.18;7.03;;;;;;;15.94;28.28;97095.91;5055749;28;20049;-68
2023/02/17 11:26:01;;;;;;;8.65;6.70;;;;;;;15.88;27.42;97089.16;5055738;28;20072;-65
2023/02/17 11:28:30;;;;;;;12.13;7.57;;;;;;;15.78;28.15;97093.19;5055753;28;20052;-66
2023/02/17 11:31:01;;;;;;;9.02;6.35;;;;;;;15.86;27.43;97093.66;5055780;28;20084;-66
2023/02/17 11:33:34;;;;;;;7.07;5.78;;;;;;;15.93;27.34;97081.00;5055619;28;20080;-66
2023/02/17 11:36:05;;;;;;;9.68;6.57;;;;;;;16.08;27.36;97082.03;5055562;28;20102;-67